sensor_id;sensor_type;location;lat;lon;timestamp;P1;durP1;ratioP1;P2;durP2;ratioP2
9465;SDS011;4771;48.726;9.006;2024-03-02T00:00:48;6.57;;;5.23;;
9465;SDS011;4771;48.726;9.006;2024-03-02T00:03:16;6.23;;;5.00;;
9465;SDS011;4771;48.726;9.006;2024-03-02T00:05:44;9.73;;;5.27;;
9465;SDS011;4771;48.726;9.006;2024-03-02T00:08:17;6.00;;;4.63;;
9465;SDS011;4771;48.726;9.006;2024-03-02T00:10:49;8.03;;;5.53;;
9465;SDS011;4771;48.726;9.006;2024-03-02T00:13:16;7.37;;;5.10;;
9465;SDS011;4771;48.726;9.006;2024-03-02T00:15:50;7.73;;;5.17;;
9465;SDS011;4771;48.726;9.006;2024-03-02T00:18:19;7.50;;;5.50;;
9465;SDS011;4771;48.726;9.006;2024-03-02T00:20:48;7.97;;;5.77;;
9465;SDS011;4771;48.726;9.006;2024-03-02T00:23:18;7.70;;;5.17;;
9465;SDS011;4771;48.726;9.006;2024-03-02T00:25:47;8.27;;;5.30;;
9465;SDS011;4771;48.726;9.006;2024-03-02T00:28:17;7.17;;;4.87;;
9465;SDS011;4771;48.726;9.006;2024-03-02T00:30:54;8.83;;;5.60;;
9465;SDS011;4771;48.726;9.006;2024-03-02T00:33:23;9.67;;;5.97;;
9465;SDS011;4771;48.726;9.006;2024-03-02T00:35:54;6.83;;;5.30;;
9465;SDS011;4771;48.726;9.006;2024-03-02T00:38:21;8.17;;;5.90;;
9465;SDS011;4771;48.726;9.006;2024-03-02T00:40:49;8.63;;;5.47;;
9465;SDS011;4771;48.726;9.006;2024-03-02T00:46:06;7.13;;;5.43;;
9465;SDS011;4771;48.726;9.006;2024-03-02T00:48:33;9.13;;;6.00;;
9465;SDS011;4771;48.726;9.006;2024-03-02T00:51:02;8.07;;;5.57;;
9465;SDS011;4771;48.726;9.006;2024-03-02T00:53:30;6.87;;;5.70;;
9465;SDS011;4771;48.726;9.006;2024-03-02T00:55:58;7.13;;;5.80;;
9465;SDS011;4771;48.726;9.006;2024-03-02T00:58:25;9.37;;;6.47;;
9465;SDS011;4771;48.726;9.006;2024-03-02T01:00:52;10.30;;;6.70;;
9465;SDS011;4771;48.726;9.006;2024-03-02T01:03:19;8.07;;;6.33;;
9465;SDS011;4771;48.726;9.006;2024-03-02T01:05:45;9.40;;;6.70;;
9465;SDS011;4771;48.726;9.006;2024-03-02T01:08:14;7.70;;;6.30;;
9465;SDS011;4771;48.726;9.006;2024-03-02T01:10:41;9.23;;;6.70;;
9465;SDS011;4771;48.726;9.006;2024-03-02T01:13:08;8.33;;;6.20;;
9465;SDS011;4771;48.726;9.006;2024-03-02T01:15:35;8.60;;;6.80;;
9465;SDS011;4771;48.726;9.006;2024-03-02T01:18:02;9.70;;;7.23;;
9465;SDS011;4771;48.726;9.006;2024-03-02T01:20:29;9.27;;;7.10;;
9465;SDS011;4771;48.726;9.006;2024-03-02T01:22:56;11.07;;;7.00;;
9465;SDS011;4771;48.726;9.006;2024-03-02T01:25:24;11.10;;;8.23;;
9465;SDS011;4771;48.726;9.006;2024-03-02T01:27:51;12.17;;;7.63;;
9465;SDS011;4771;48.726;9.006;2024-03-02T01:30:18;9.23;;;7.30;;
9465;SDS011;4771;48.726;9.006;2024-03-02T01:32:45;11.07;;;8.07;;
9465;SDS011;4771;48.726;9.006;2024-03-02T01:35:12;9.67;;;7.77;;
9465;SDS011;4771;48.726;9.006;2024-03-02T01:37:39;10.43;;;8.20;;
9465;SDS011;4771;48.726;9.006;2024-03-02T01:40:07;11.60;;;8.27;;
9465;SDS011;4771;48.726;9.006;2024-03-02T01:42:37;12.87;;;8.80;;
9465;SDS011;4771;48.726;9.006;2024-03-02T01:45:04;11.47;;;8.63;;
9465;SDS011;4771;48.726;9.006;2024-03-02T01:47:32;11.23;;;8.20;;
9465;SDS011;4771;48.726;9.006;2024-03-02T01:49:59;10.23;;;8.23;;
9465;SDS011;4771;48.726;9.006;2024-03-02T01:52:27;10.27;;;8.13;;
9465;SDS011;4771;48.726;9.006;2024-03-02T01:54:54;10.70;;;8.07;;
9465;SDS011;4771;48.726;9.006;2024-03-02T01:57:21;10.23;;;7.90;;
9465;SDS011;4771;48.726;9.006;2024-03-02T01:59:49;15.00;;;8.83;;
9465;SDS011;4771;48.726;9.006;2024-03-02T02:02:16;11.33;;;8.23;;
9465;SDS011;4771;48.726;9.006;2024-03-02T02:04:44;11.07;;;8.40;;
9465;SDS011;4771;48.726;9.006;2024-03-02T02:07:10;10.33;;;8.20;;
9465;SDS011;4771;48.726;9.006;2024-03-02T02:09:39;9.27;;;7.37;;
9465;SDS011;4771;48.726;9.006;2024-03-02T02:12:07;11.70;;;8.27;;
9465;SDS011;4771;48.726;9.006;2024-03-02T02:14:34;12.17;;;8.33;;
9465;SDS011;4771;48.726;9.006;2024-03-02T02:17:02;10.00;;;8.43;;
9465;SDS011;4771;48.726;9.006;2024-03-02T02:19:29;10.33;;;8.17;;
9465;SDS011;4771;48.726;9.006;2024-03-02T02:21:58;12.63;;;8.53;;
9465;SDS011;4771;48.726;9.006;2024-03-02T02:24:25;10.90;;;8.10;;
9465;SDS011;4771;48.726;9.006;2024-03-02T02:26:51;12.33;;;8.17;;
9465;SDS011;4771;48.726;9.006;2024-03-02T02:29:18;10.13;;;7.77;;
9465;SDS011;4771;48.726;9.006;2024-03-02T02:31:45;9.83;;;7.83;;
9465;SDS011;4771;48.726;9.006;2024-03-02T02:34:13;11.00;;;8.40;;
9465;SDS011;4771;48.726;9.006;2024-03-02T02:36:40;10.33;;;7.77;;
9465;SDS011;4771;48.726;9.006;2024-03-02T02:39:10;12.30;;;8.43;;
9465;SDS011;4771;48.726;9.006;2024-03-02T02:41:39;10.70;;;7.77;;
9465;SDS011;4771;48.726;9.006;2024-03-02T02:44:06;10.67;;;8.00;;
9465;SDS011;4771;48.726;9.006;2024-03-02T02:46:33;11.50;;;8.10;;
9465;SDS011;4771;48.726;9.006;2024-03-02T02:48:59;9.73;;;7.70;;
9465;SDS011;4771;48.726;9.006;2024-03-02T02:51:26;12.53;;;8.00;;
9465;SDS011;4771;48.726;9.006;2024-03-02T02:53:53;10.63;;;8.40;;
9465;SDS011;4771;48.726;9.006;2024-03-02T02:56:21;12.40;;;8.03;;
9465;SDS011;4771;48.726;9.006;2024-03-02T02:58:48;10.83;;;7.77;;
9465;SDS011;4771;48.726;9.006;2024-03-02T03:01:15;12.77;;;8.23;;
9465;SDS011;4771;48.726;9.006;2024-03-02T03:03:43;11.67;;;8.53;;
9465;SDS011;4771;48.726;9.006;2024-03-02T03:06:10;9.93;;;7.97;;
9465;SDS011;4771;48.726;9.006;2024-03-02T03:08:38;11.40;;;7.60;;
9465;SDS011;4771;48.726;9.006;2024-03-02T03:11:05;10.20;;;7.43;;
9465;SDS011;4771;48.726;9.006;2024-03-02T03:13:33;11.70;;;8.13;;
9465;SDS011;4771;48.726;9.006;2024-03-02T03:16:00;10.83;;;7.93;;
9465;SDS011;4771;48.726;9.006;2024-03-02T03:18:28;11.73;;;7.60;;
9465;SDS011;4771;48.726;9.006;2024-03-02T03:20:55;11.97;;;8.77;;
9465;SDS011;4771;48.726;9.006;2024-03-02T03:23:21;11.30;;;8.63;;
9465;SDS011;4771;48.726;9.006;2024-03-02T03:25:48;10.13;;;7.53;;
9465;SDS011;4771;48.726;9.006;2024-03-02T03:28:15;10.83;;;8.10;;
9465;SDS011;4771;48.726;9.006;2024-03-02T03:30:44;10.63;;;7.67;;
9465;SDS011;4771;48.726;9.006;2024-03-02T03:33:11;11.93;;;8.63;;
9465;SDS011;4771;48.726;9.006;2024-03-02T03:35:38;11.80;;;9.53;;
9465;SDS011;4771;48.726;9.006;2024-03-02T03:38:05;11.03;;;8.20;;
9465;SDS011;4771;48.726;9.006;2024-03-02T03:40:32;11.17;;;7.97;;
9465;SDS011;4771;48.726;9.006;2024-03-02T03:42:59;9.67;;;7.63;;
9465;SDS011;4771;48.726;9.006;2024-03-02T03:45:26;10.63;;;7.67;;
9465;SDS011;4771;48.726;9.006;2024-03-02T03:47:54;12.47;;;8.87;;
9465;SDS011;4771;48.726;9.006;2024-03-02T03:50:21;11.07;;;8.50;;
9465;SDS011;4771;48.726;9.006;2024-03-02T03:52:48;10.97;;;7.93;;
9465;SDS011;4771;48.726;9.006;2024-03-02T03:55:15;11.23;;;8.03;;
9465;SDS011;4771;48.726;9.006;2024-03-02T03:57:42;10.83;;;8.17;;
9465;SDS011;4771;48.726;9.006;2024-03-02T04:00:09;9.93;;;7.33;;
9465;SDS011;4771;48.726;9.006;2024-03-02T04:02:37;11.87;;;8.17;;
9465;SDS011;4771;48.726;9.006;2024-03-02T04:05:06;10.93;;;8.23;;
9465;SDS011;4771;48.726;9.006;2024-03-02T04:07:35;11.27;;;8.27;;
9465;SDS011;4771;48.726;9.006;2024-03-02T04:10:06;10.73;;;8.00;;
9465;SDS011;4771;48.726;9.006;2024-03-02T04:12:34;10.80;;;7.83;;
9465;SDS011;4771;48.726;9.006;2024-03-02T04:15:03;12.87;;;7.87;;
9465;SDS011;4771;48.726;9.006;2024-03-02T04:17:31;11.00;;;8.03;;
9465;SDS011;4771;48.726;9.006;2024-03-02T04:20:00;14.63;;;8.33;;
9465;SDS011;4771;48.726;9.006;2024-03-02T04:22:32;11.03;;;8.20;;
9465;SDS011;4771;48.726;9.006;2024-03-02T04:24:59;12.80;;;8.40;;
9465;SDS011;4771;48.726;9.006;2024-03-02T04:27:26;9.13;;;7.27;;
9465;SDS011;4771;48.726;9.006;2024-03-02T04:29:53;11.97;;;7.93;;
9465;SDS011;4771;48.726;9.006;2024-03-02T04:32:20;10.10;;;8.07;;
9465;SDS011;4771;48.726;9.006;2024-03-02T04:34:47;10.43;;;7.23;;
9465;SDS011;4771;48.726;9.006;2024-03-02T04:37:14;10.50;;;8.17;;
9465;SDS011;4771;48.726;9.006;2024-03-02T04:39:42;11.10;;;7.47;;
9465;SDS011;4771;48.726;9.006;2024-03-02T04:42:09;10.27;;;7.53;;
9465;SDS011;4771;48.726;9.006;2024-03-02T04:44:36;11.57;;;7.87;;
9465;SDS011;4771;48.726;9.006;2024-03-02T04:47:03;10.07;;;7.73;;
9465;SDS011;4771;48.726;9.006;2024-03-02T04:49:30;10.73;;;7.57;;
9465;SDS011;4771;48.726;9.006;2024-03-02T04:51:57;12.20;;;8.27;;
9465;SDS011;4771;48.726;9.006;2024-03-02T04:54:24;10.50;;;7.50;;
9465;SDS011;4771;48.726;9.006;2024-03-02T04:56:52;10.07;;;7.50;;
9465;SDS011;4771;48.726;9.006;2024-03-02T04:59:19;11.50;;;7.60;;
9465;SDS011;4771;48.726;9.006;2024-03-02T05:01:46;10.10;;;7.67;;
9465;SDS011;4771;48.726;9.006;2024-03-02T05:04:13;9.30;;;7.17;;
9465;SDS011;4771;48.726;9.006;2024-03-02T05:06:40;9.70;;;7.30;;
9465;SDS011;4771;48.726;9.006;2024-03-02T05:09:07;9.90;;;7.63;;
9465;SDS011;4771;48.726;9.006;2024-03-02T05:11:34;10.97;;;7.57;;
9465;SDS011;4771;48.726;9.006;2024-03-02T05:14:21;10.30;;;7.73;;
9465;SDS011;4771;48.726;9.006;2024-03-02T05:16:47;10.23;;;7.67;;
9465;SDS011;4771;48.726;9.006;2024-03-02T05:19:14;12.77;;;7.90;;
9465;SDS011;4771;48.726;9.006;2024-03-02T05:21:41;8.87;;;7.47;;
9465;SDS011;4771;48.726;9.006;2024-03-02T05:24:08;10.10;;;7.30;;
9465;SDS011;4771;48.726;9.006;2024-03-02T05:26:35;10.53;;;7.37;;
9465;SDS011;4771;48.726;9.006;2024-03-02T05:29:02;10.20;;;7.30;;
9465;SDS011;4771;48.726;9.006;2024-03-02T05:31:30;8.83;;;6.93;;
9465;SDS011;4771;48.726;9.006;2024-03-02T05:33:57;9.33;;;6.83;;
9465;SDS011;4771;48.726;9.006;2024-03-02T05:36:24;10.67;;;7.13;;
9465;SDS011;4771;48.726;9.006;2024-03-02T05:38:51;9.43;;;7.20;;
9465;SDS011;4771;48.726;9.006;2024-03-02T05:41:18;9.37;;;7.20;;
9465;SDS011;4771;48.726;9.006;2024-03-02T05:43:45;11.07;;;7.17;;
9465;SDS011;4771;48.726;9.006;2024-03-02T05:46:12;9.37;;;6.87;;
9465;SDS011;4771;48.726;9.006;2024-03-02T05:48:40;11.77;;;7.50;;
9465;SDS011;4771;48.726;9.006;2024-03-02T05:51:07;10.93;;;7.83;;
9465;SDS011;4771;48.726;9.006;2024-03-02T05:53:34;11.57;;;7.67;;
9465;SDS011;4771;48.726;9.006;2024-03-02T05:56:03;10.13;;;7.70;;
9465;SDS011;4771;48.726;9.006;2024-03-02T05:58:30;11.80;;;7.70;;
9465;SDS011;4771;48.726;9.006;2024-03-02T06:01:08;11.20;;;8.30;;
9465;SDS011;4771;48.726;9.006;2024-03-02T06:03:35;12.37;;;8.10;;
9465;SDS011;4771;48.726;9.006;2024-03-02T06:06:03;8.77;;;7.20;;
9465;SDS011;4771;48.726;9.006;2024-03-02T06:08:30;10.70;;;7.67;;
9465;SDS011;4771;48.726;9.006;2024-03-02T06:10:57;12.63;;;8.00;;
9465;SDS011;4771;48.726;9.006;2024-03-02T06:13:24;10.43;;;7.97;;
9465;SDS011;4771;48.726;9.006;2024-03-02T06:15:51;11.73;;;7.47;;
9465;SDS011;4771;48.726;9.006;2024-03-02T06:18:18;12.03;;;8.23;;
9465;SDS011;4771;48.726;9.006;2024-03-02T06:20:45;12.40;;;8.73;;
9465;SDS011;4771;48.726;9.006;2024-03-02T06:23:13;11.90;;;8.53;;
9465;SDS011;4771;48.726;9.006;2024-03-02T06:25:41;11.43;;;8.40;;
9465;SDS011;4771;48.726;9.006;2024-03-02T06:28:07;11.83;;;8.87;;
9465;SDS011;4771;48.726;9.006;2024-03-02T06:30:34;12.23;;;9.00;;
9465;SDS011;4771;48.726;9.006;2024-03-02T06:33:01;10.97;;;8.27;;
9465;SDS011;4771;48.726;9.006;2024-03-02T06:35:30;10.83;;;8.37;;
9465;SDS011;4771;48.726;9.006;2024-03-02T06:37:57;11.73;;;8.57;;
9465;SDS011;4771;48.726;9.006;2024-03-02T06:40:25;12.87;;;9.20;;
9465;SDS011;4771;48.726;9.006;2024-03-02T06:42:52;12.33;;;8.83;;
9465;SDS011;4771;48.726;9.006;2024-03-02T06:45:19;12.87;;;9.13;;
9465;SDS011;4771;48.726;9.006;2024-03-02T06:47:46;12.90;;;9.80;;
9465;SDS011;4771;48.726;9.006;2024-03-02T06:50:13;12.47;;;8.63;;
9465;SDS011;4771;48.726;9.006;2024-03-02T06:52:40;11.63;;;9.23;;
9465;SDS011;4771;48.726;9.006;2024-03-02T06:55:07;14.20;;;9.73;;
9465;SDS011;4771;48.726;9.006;2024-03-02T06:57:35;14.33;;;9.40;;
9465;SDS011;4771;48.726;9.006;2024-03-02T07:00:02;13.73;;;8.90;;
9465;SDS011;4771;48.726;9.006;2024-03-02T07:02:31;12.67;;;9.60;;
9465;SDS011;4771;48.726;9.006;2024-03-02T07:04:58;13.40;;;9.47;;
9465;SDS011;4771;48.726;9.006;2024-03-02T07:07:25;12.10;;;9.27;;
9465;SDS011;4771;48.726;9.006;2024-03-02T07:09:51;13.43;;;9.27;;
9465;SDS011;4771;48.726;9.006;2024-03-02T07:12:18;13.90;;;9.43;;
9465;SDS011;4771;48.726;9.006;2024-03-02T07:14:46;12.93;;;9.23;;
9465;SDS011;4771;48.726;9.006;2024-03-02T07:17:33;12.53;;;9.07;;
9465;SDS011;4771;48.726;9.006;2024-03-02T07:20:02;12.80;;;8.70;;
9465;SDS011;4771;48.726;9.006;2024-03-02T07:22:29;10.47;;;8.10;;
9465;SDS011;4771;48.726;9.006;2024-03-02T07:24:56;12.93;;;9.00;;
9465;SDS011;4771;48.726;9.006;2024-03-02T07:27:23;10.20;;;7.73;;
9465;SDS011;4771;48.726;9.006;2024-03-02T07:29:51;11.53;;;7.87;;
9465;SDS011;4771;48.726;9.006;2024-03-02T07:32:18;12.43;;;9.03;;
9465;SDS011;4771;48.726;9.006;2024-03-02T07:34:45;13.13;;;8.80;;
9465;SDS011;4771;48.726;9.006;2024-03-02T07:37:12;10.60;;;7.83;;
9465;SDS011;4771;48.726;9.006;2024-03-02T07:39:38;13.60;;;9.53;;
9465;SDS011;4771;48.726;9.006;2024-03-02T07:42:05;12.80;;;8.50;;
9465;SDS011;4771;48.726;9.006;2024-03-02T07:44:32;13.17;;;8.90;;
9465;SDS011;4771;48.726;9.006;2024-03-02T07:47:00;11.47;;;8.37;;
9465;SDS011;4771;48.726;9.006;2024-03-02T07:49:27;12.97;;;8.00;;
9465;SDS011;4771;48.726;9.006;2024-03-02T07:51:54;12.73;;;8.27;;
9465;SDS011;4771;48.726;9.006;2024-03-02T07:54:21;11.80;;;8.63;;
9465;SDS011;4771;48.726;9.006;2024-03-02T07:56:48;12.00;;;8.67;;
9465;SDS011;4771;48.726;9.006;2024-03-02T07:59:15;15.10;;;8.20;;
9465;SDS011;4771;48.726;9.006;2024-03-02T08:01:42;11.17;;;8.17;;
9465;SDS011;4771;48.726;9.006;2024-03-02T08:04:10;11.63;;;8.37;;
9465;SDS011;4771;48.726;9.006;2024-03-02T08:06:37;10.70;;;8.00;;
9465;SDS011;4771;48.726;9.006;2024-03-02T08:09:04;11.80;;;8.43;;
9465;SDS011;4771;48.726;9.006;2024-03-02T08:11:34;11.40;;;8.70;;
9465;SDS011;4771;48.726;9.006;2024-03-02T08:14:02;10.13;;;7.87;;
9465;SDS011;4771;48.726;9.006;2024-03-02T08:16:29;10.03;;;7.93;;
9465;SDS011;4771;48.726;9.006;2024-03-02T08:18:57;11.63;;;8.17;;
9465;SDS011;4771;48.726;9.006;2024-03-02T08:21:26;12.07;;;8.30;;
9465;SDS011;4771;48.726;9.006;2024-03-02T08:23:55;10.60;;;7.93;;
9465;SDS011;4771;48.726;9.006;2024-03-02T08:26:22;9.90;;;7.13;;
9465;SDS011;4771;48.726;9.006;2024-03-02T08:28:50;10.87;;;7.43;;
9465;SDS011;4771;48.726;9.006;2024-03-02T08:31:16;8.87;;;6.63;;
9465;SDS011;4771;48.726;9.006;2024-03-02T08:33:43;9.10;;;7.13;;
9465;SDS011;4771;48.726;9.006;2024-03-02T08:36:10;14.17;;;7.63;;
9465;SDS011;4771;48.726;9.006;2024-03-02T08:38:39;8.63;;;6.63;;
9465;SDS011;4771;48.726;9.006;2024-03-02T08:41:06;9.13;;;6.93;;
9465;SDS011;4771;48.726;9.006;2024-03-02T08:43:33;9.73;;;7.13;;
9465;SDS011;4771;48.726;9.006;2024-03-02T08:46:00;11.93;;;6.47;;
9465;SDS011;4771;48.726;9.006;2024-03-02T08:48:27;7.97;;;6.17;;
9465;SDS011;4771;48.726;9.006;2024-03-02T08:50:54;7.37;;;5.77;;
9465;SDS011;4771;48.726;9.006;2024-03-02T08:53:21;8.67;;;6.83;;
9465;SDS011;4771;48.726;9.006;2024-03-02T08:55:49;10.17;;;6.77;;
9465;SDS011;4771;48.726;9.006;2024-03-02T08:58:16;8.97;;;6.27;;
9465;SDS011;4771;48.726;9.006;2024-03-02T09:00:43;9.20;;;6.77;;
9465;SDS011;4771;48.726;9.006;2024-03-02T09:03:10;9.50;;;6.33;;
9465;SDS011;4771;48.726;9.006;2024-03-02T09:05:37;7.90;;;6.23;;
9465;SDS011;4771;48.726;9.006;2024-03-02T09:08:04;9.80;;;6.67;;
9465;SDS011;4771;48.726;9.006;2024-03-02T09:10:32;8.57;;;6.77;;
9465;SDS011;4771;48.726;9.006;2024-03-02T09:13:01;8.27;;;6.40;;
9465;SDS011;4771;48.726;9.006;2024-03-02T09:15:28;7.37;;;5.60;;
9465;SDS011;4771;48.726;9.006;2024-03-02T09:17:55;7.57;;;5.90;;
9465;SDS011;4771;48.726;9.006;2024-03-02T09:20:21;7.93;;;5.97;;
9465;SDS011;4771;48.726;9.006;2024-03-02T09:22:48;6.97;;;5.65;;
9465;SDS011;4771;48.726;9.006;2024-03-02T09:25:15;5.87;;;5.10;;
9465;SDS011;4771;48.726;9.006;2024-03-02T09:27:42;6.50;;;4.90;;
9465;SDS011;4771;48.726;9.006;2024-03-02T09:30:11;6.43;;;4.93;;
9465;SDS011;4771;48.726;9.006;2024-03-02T09:32:39;5.55;;;4.28;;
9465;SDS011;4771;48.726;9.006;2024-03-02T09:35:07;6.15;;;4.38;;
9465;SDS011;4771;48.726;9.006;2024-03-02T09:37:34;5.45;;;4.45;;
9465;SDS011;4771;48.726;9.006;2024-03-02T09:40:01;5.53;;;3.87;;
9465;SDS011;4771;48.726;9.006;2024-03-02T09:42:28;3.55;;;3.20;;
9465;SDS011;4771;48.726;9.006;2024-03-02T09:44:55;4.82;;;3.55;;
9465;SDS011;4771;48.726;9.006;2024-03-02T09:47:24;3.55;;;3.05;;
9465;SDS011;4771;48.726;9.006;2024-03-02T09:49:51;4.65;;;3.30;;
9465;SDS011;4771;48.726;9.006;2024-03-02T09:52:18;4.10;;;2.83;;
9465;SDS011;4771;48.726;9.006;2024-03-02T09:54:47;3.85;;;3.00;;
9465;SDS011;4771;48.726;9.006;2024-03-02T09:57:14;4.60;;;3.30;;
9465;SDS011;4771;48.726;9.006;2024-03-02T09:59:42;3.80;;;3.30;;
9465;SDS011;4771;48.726;9.006;2024-03-02T10:02:10;4.78;;;3.33;;
9465;SDS011;4771;48.726;9.006;2024-03-02T10:04:38;3.30;;;2.70;;
9465;SDS011;4771;48.726;9.006;2024-03-02T10:07:12;4.55;;;3.22;;
9465;SDS011;4771;48.726;9.006;2024-03-02T10:09:40;3.72;;;2.63;;
9465;SDS011;4771;48.726;9.006;2024-03-02T10:12:08;5.25;;;2.75;;
9465;SDS011;4771;48.726;9.006;2024-03-02T10:14:36;3.17;;;2.67;;
9465;SDS011;4771;48.726;9.006;2024-03-02T10:17:04;3.03;;;2.40;;
9465;SDS011;4771;48.726;9.006;2024-03-02T10:19:32;2.65;;;2.33;;
9465;SDS011;4771;48.726;9.006;2024-03-02T10:22:02;1.83;;;1.73;;
9465;SDS011;4771;48.726;9.006;2024-03-02T10:24:35;2.80;;;2.15;;
9465;SDS011;4771;48.726;9.006;2024-03-02T10:27:06;2.03;;;1.83;;
9465;SDS011;4771;48.726;9.006;2024-03-02T10:29:36;2.85;;;2.03;;
9465;SDS011;4771;48.726;9.006;2024-03-02T10:32:04;2.42;;;2.00;;
9465;SDS011;4771;48.726;9.006;2024-03-02T10:34:32;2.35;;;2.00;;
9465;SDS011;4771;48.726;9.006;2024-03-02T10:36:59;2.22;;;1.88;;
9465;SDS011;4771;48.726;9.006;2024-03-02T10:39:27;2.65;;;1.77;;
9465;SDS011;4771;48.726;9.006;2024-03-02T10:41:56;1.70;;;1.42;;
9465;SDS011;4771;48.726;9.006;2024-03-02T10:44:24;2.40;;;1.70;;
9465;SDS011;4771;48.726;9.006;2024-03-02T10:46:52;1.88;;;1.55;;
9465;SDS011;4771;48.726;9.006;2024-03-02T10:49:21;2.20;;;1.60;;
9465;SDS011;4771;48.726;9.006;2024-03-02T10:51:50;1.70;;;1.27;;
9465;SDS011;4771;48.726;9.006;2024-03-02T10:54:18;1.38;;;1.17;;
9465;SDS011;4771;48.726;9.006;2024-03-02T10:56:51;1.40;;;1.15;;
9465;SDS011;4771;48.726;9.006;2024-03-02T10:59:22;0.95;;;0.95;;
9465;SDS011;4771;48.726;9.006;2024-03-02T11:01:55;1.20;;;1.10;;
9465;SDS011;4771;48.726;9.006;2024-03-02T11:04:24;1.65;;;1.10;;
9465;SDS011;4771;48.726;9.006;2024-03-02T11:06:52;4.78;;;1.50;;
9465;SDS011;4771;48.726;9.006;2024-03-02T11:09:27;1.00;;;0.90;;
9465;SDS011;4771;48.726;9.006;2024-03-02T11:12:00;1.02;;;0.93;;
9465;SDS011;4771;48.726;9.006;2024-03-02T11:14:30;1.67;;;1.00;;
9465;SDS011;4771;48.726;9.006;2024-03-02T11:16:59;2.08;;;0.82;;
9465;SDS011;4771;48.726;9.006;2024-03-02T11:19:28;1.10;;;1.00;;
9465;SDS011;4771;48.726;9.006;2024-03-02T11:21:57;1.70;;;1.10;;
9465;SDS011;4771;48.726;9.006;2024-03-02T11:24:34;1.45;;;1.10;;
9465;SDS011;4771;48.726;9.006;2024-03-02T11:27:02;1.33;;;0.95;;
9465;SDS011;4771;48.726;9.006;2024-03-02T11:29:45;0.82;;;0.80;;
9465;SDS011;4771;48.726;9.006;2024-03-02T11:32:13;1.27;;;1.10;;
9465;SDS011;4771;48.726;9.006;2024-03-02T11:34:45;0.82;;;0.70;;
9465;SDS011;4771;48.726;9.006;2024-03-02T11:37:12;1.25;;;0.90;;
9465;SDS011;4771;48.726;9.006;2024-03-02T11:39:41;2.75;;;0.73;;
9465;SDS011;4771;48.726;9.006;2024-03-02T11:42:10;0.60;;;0.50;;
9465;SDS011;4771;48.726;9.006;2024-03-02T11:44:39;0.55;;;0.55;;
9465;SDS011;4771;48.726;9.006;2024-03-02T11:47:09;4.32;;;0.82;;
9465;SDS011;4771;48.726;9.006;2024-03-02T11:49:39;0.70;;;0.70;;
9465;SDS011;4771;48.726;9.006;2024-03-02T11:52:07;1.08;;;0.70;;
9465;SDS011;4771;48.726;9.006;2024-03-02T11:54:36;0.65;;;0.55;;
9465;SDS011;4771;48.726;9.006;2024-03-02T11:57:07;1.27;;;0.70;;
9465;SDS011;4771;48.726;9.006;2024-03-02T11:59:34;0.50;;;0.50;;
9465;SDS011;4771;48.726;9.006;2024-03-02T12:02:01;1.52;;;0.80;;
9465;SDS011;4771;48.726;9.006;2024-03-02T12:04:29;0.80;;;0.70;;
9465;SDS011;4771;48.726;9.006;2024-03-02T12:06:57;0.60;;;0.60;;
9465;SDS011;4771;48.726;9.006;2024-03-02T12:09:26;0.55;;;0.55;;
9465;SDS011;4771;48.726;9.006;2024-03-02T12:12:03;0.90;;;0.85;;
9465;SDS011;4771;48.726;9.006;2024-03-02T12:14:32;0.82;;;0.70;;
9465;SDS011;4771;48.726;9.006;2024-03-02T12:17:01;0.70;;;0.63;;
9465;SDS011;4771;48.726;9.006;2024-03-02T12:19:28;0.60;;;0.60;;
9465;SDS011;4771;48.726;9.006;2024-03-02T12:21:56;0.85;;;0.65;;
9465;SDS011;4771;48.726;9.006;2024-03-02T12:24:24;0.85;;;0.73;;
9465;SDS011;4771;48.726;9.006;2024-03-02T12:26:52;0.68;;;0.68;;
9465;SDS011;4771;48.726;9.006;2024-03-02T12:29:20;0.70;;;0.70;;
9465;SDS011;4771;48.726;9.006;2024-03-02T12:31:49;0.65;;;0.65;;
9465;SDS011;4771;48.726;9.006;2024-03-02T12:34:17;0.90;;;0.70;;
9465;SDS011;4771;48.726;9.006;2024-03-02T12:36:45;1.02;;;0.80;;
9465;SDS011;4771;48.726;9.006;2024-03-02T12:39:14;2.35;;;0.93;;
9465;SDS011;4771;48.726;9.006;2024-03-02T12:41:42;0.70;;;0.70;;
9465;SDS011;4771;48.726;9.006;2024-03-02T12:44:09;0.80;;;0.73;;
9465;SDS011;4771;48.726;9.006;2024-03-02T12:46:35;0.90;;;0.70;;
9465;SDS011;4771;48.726;9.006;2024-03-02T12:49:08;0.75;;;0.70;;
9465;SDS011;4771;48.726;9.006;2024-03-02T12:51:37;1.88;;;0.95;;
9465;SDS011;4771;48.726;9.006;2024-03-02T12:54:05;1.33;;;0.90;;
9465;SDS011;4771;48.726;9.006;2024-03-02T12:56:32;1.13;;;0.93;;
9465;SDS011;4771;48.726;9.006;2024-03-02T12:59:00;1.02;;;0.90;;
9465;SDS011;4771;48.726;9.006;2024-03-02T13:01:27;0.80;;;0.80;;
9465;SDS011;4771;48.726;9.006;2024-03-02T13:03:54;1.40;;;1.02;;
9465;SDS011;4771;48.726;9.006;2024-03-02T13:06:23;0.98;;;0.88;;
9465;SDS011;4771;48.726;9.006;2024-03-02T13:08:52;1.80;;;0.80;;
9465;SDS011;4771;48.726;9.006;2024-03-02T13:11:20;1.10;;;1.00;;
9465;SDS011;4771;48.726;9.006;2024-03-02T13:13:48;0.98;;;0.90;;
9465;SDS011;4771;48.726;9.006;2024-03-02T13:16:17;2.83;;;1.13;;
9465;SDS011;4771;48.726;9.006;2024-03-02T13:18:45;2.70;;;1.05;;
9465;SDS011;4771;48.726;9.006;2024-03-02T13:21:12;1.15;;;0.80;;
9465;SDS011;4771;48.726;9.006;2024-03-02T13:23:41;0.90;;;0.82;;
9465;SDS011;4771;48.726;9.006;2024-03-02T13:26:07;1.13;;;1.02;;
9465;SDS011;4771;48.726;9.006;2024-03-02T13:28:36;1.20;;;1.10;;
9465;SDS011;4771;48.726;9.006;2024-03-02T13:31:04;0.82;;;0.82;;
9465;SDS011;4771;48.726;9.006;2024-03-02T13:33:31;0.93;;;0.70;;
9465;SDS011;4771;48.726;9.006;2024-03-02T13:35:58;4.50;;;3.78;;
9465;SDS011;4771;48.726;9.006;2024-03-02T13:38:26;0.70;;;0.70;;
9465;SDS011;4771;48.726;9.006;2024-03-02T13:40:55;2.05;;;1.52;;
9465;SDS011;4771;48.726;9.006;2024-03-02T13:43:21;0.75;;;0.70;;
9465;SDS011;4771;48.726;9.006;2024-03-02T13:45:49;1.52;;;0.80;;
9465;SDS011;4771;48.726;9.006;2024-03-02T13:48:17;0.63;;;0.63;;
9465;SDS011;4771;48.726;9.006;2024-03-02T13:50:44;0.70;;;0.70;;
9465;SDS011;4771;48.726;9.006;2024-03-02T13:53:11;1.20;;;0.80;;
9465;SDS011;4771;48.726;9.006;2024-03-02T13:55:38;1.23;;;0.90;;
9465;SDS011;4771;48.726;9.006;2024-03-02T13:58:08;4.75;;;2.97;;
9465;SDS011;4771;48.726;9.006;2024-03-02T14:00:35;2.35;;;1.77;;
9465;SDS011;4771;48.726;9.006;2024-03-02T14:03:03;1.35;;;1.02;;
9465;SDS011;4771;48.726;9.006;2024-03-02T14:05:32;1.15;;;0.90;;
9465;SDS011;4771;48.726;9.006;2024-03-02T14:07:59;1.48;;;1.00;;
9465;SDS011;4771;48.726;9.006;2024-03-02T14:10:26;1.08;;;0.98;;
9465;SDS011;4771;48.726;9.006;2024-03-02T14:12:54;1.52;;;0.90;;
9465;SDS011;4771;48.726;9.006;2024-03-02T14:15:22;1.20;;;1.10;;
9465;SDS011;4771;48.726;9.006;2024-03-02T14:17:49;1.20;;;1.10;;
9465;SDS011;4771;48.726;9.006;2024-03-02T14:20:16;1.10;;;1.00;;
9465;SDS011;4771;48.726;9.006;2024-03-02T14:22:47;1.70;;;1.58;;
9465;SDS011;4771;48.726;9.006;2024-03-02T14:25:14;1.70;;;1.50;;
9465;SDS011;4771;48.726;9.006;2024-03-02T14:27:42;1.33;;;1.13;;
9465;SDS011;4771;48.726;9.006;2024-03-02T14:30:09;1.00;;;0.90;;
9465;SDS011;4771;48.726;9.006;2024-03-02T14:32:38;1.00;;;0.90;;
9465;SDS011;4771;48.726;9.006;2024-03-02T14:35:05;1.08;;;0.90;;
9465;SDS011;4771;48.726;9.006;2024-03-02T14:37:35;0.98;;;0.90;;
9465;SDS011;4771;48.726;9.006;2024-03-02T14:40:02;1.23;;;0.90;;
9465;SDS011;4771;48.726;9.006;2024-03-02T14:42:31;0.70;;;0.68;;
9465;SDS011;4771;48.726;9.006;2024-03-02T14:44:58;1.15;;;0.80;;
9465;SDS011;4771;48.726;9.006;2024-03-02T14:47:25;1.25;;;1.10;;
9465;SDS011;4771;48.726;9.006;2024-03-02T14:49:53;1.48;;;1.10;;
9465;SDS011;4771;48.726;9.006;2024-03-02T14:52:20;0.90;;;0.80;;
9465;SDS011;4771;48.726;9.006;2024-03-02T14:54:47;1.15;;;0.90;;
9465;SDS011;4771;48.726;9.006;2024-03-02T14:57:14;0.55;;;0.55;;
9465;SDS011;4771;48.726;9.006;2024-03-02T14:59:41;1.45;;;0.93;;
9465;SDS011;4771;48.726;9.006;2024-03-02T15:02:08;0.98;;;0.80;;
9465;SDS011;4771;48.726;9.006;2024-03-02T15:04:35;1.38;;;1.02;;
9465;SDS011;4771;48.726;9.006;2024-03-02T15:07:03;1.30;;;1.00;;
9465;SDS011;4771;48.726;9.006;2024-03-02T15:09:30;2.90;;;1.70;;
9465;SDS011;4771;48.726;9.006;2024-03-02T15:11:59;2.65;;;1.20;;
9465;SDS011;4771;48.726;9.006;2024-03-02T15:14:28;3.17;;;1.35;;
9465;SDS011;4771;48.726;9.006;2024-03-02T15:16:55;1.20;;;1.10;;